WEATHER/FLIGHT PLANNING

Hattiesburg Radar

 

 

 

 

Weather Links

Flight Planning Links

 

METAR

2019/12/13 06:53 KHBG 130653Z AUTO 05004KT 6SM BR OVC003 09/08 A3012 RMK AO2 RAE13B31E46 SLPNO P0001 T00890078

TAF

2019/12/13 06:48 TAF KHBG 130540Z 1306/1406 05003KT 4SM -RA BR BKN004 OVC015 FM130700 09002KT 4SM -RA BR OVC003 FM131000 00000KT 1/2SM FG OVC003 FM131700 29003KT 1 1/2SM BR OVC003 FM131900 29003KT 6SM BR OVC007 FM132100 30003KT P6SM OVC015